createdAt,value
2023-07-24T00:01:49.772Z,40.87
2023-07-24T00:04:16.287Z,41.02
2023-07-24T00:06:42.778Z,40.92
2023-07-24T00:09:09.365Z,40.98
2023-07-24T00:11:35.898Z,41.10
2023-07-24T00:14:02.365Z,41.20
2023-07-24T00:16:29.147Z,40.94
2023-07-24T00:18:55.843Z,40.87
2023-07-24T00:21:22.303Z,40.83
2023-07-24T00:23:48.784Z,41.03
2023-07-24T00:26:15.555Z,41.15
2023-07-24T00:28:42.082Z,41.05
2023-07-24T00:31:08.687Z,41.21
2023-07-24T00:33:35.231Z,41.19
2023-07-24T00:36:01.717Z,40.89
2023-07-24T00:38:28.252Z,40.96
2023-07-24T00:40:55.054Z,41.11
2023-07-24T00:43:21.634Z,40.86
2023-07-24T00:45:48.679Z,40.88
2023-07-24T00:48:15.445Z,40.71
2023-07-24T00:50:43.153Z,40.90
2023-07-24T00:53:10.041Z,40.91
2023-07-24T00:55:36.813Z,40.75
2023-07-24T00:58:04.168Z,41.08
2023-07-24T01:00:31.208Z,40.92
2023-07-24T01:02:57.913Z,40.98
2023-07-24T01:05:26.005Z,41.09
2023-07-24T01:07:53.184Z,40.97
2023-07-24T01:10:19.779Z,40.92
2023-07-24T01:12:48.958Z,40.87
2023-07-24T01:15:36.046Z,41.15
2023-07-24T01:18:12.220Z,41.01
2023-07-24T01:20:41.221Z,41.07
2023-07-24T01:23:07.960Z,40.96
2023-07-24T01:25:39.087Z,40.88
2023-07-24T01:28:09.098Z,41.02
2023-07-24T01:30:35.722Z,41.04
2023-07-24T01:33:02.860Z,41.00
2023-07-24T01:35:30.577Z,41.14
2023-07-24T01:37:57.602Z,40.92
2023-07-24T01:40:24.413Z,41.19
2023-07-24T01:42:51.747Z,41.17
2023-07-24T01:45:18.207Z,40.84
2023-07-24T01:47:44.958Z,41.14
2023-07-24T01:50:11.647Z,41.06
2023-07-24T01:52:38.111Z,41.14
2023-07-24T01:55:04.836Z,41.03
2023-07-24T01:57:31.432Z,41.04
2023-07-24T01:59:57.920Z,41.08
2023-07-24T02:02:24.425Z,41.24
2023-07-24T02:04:50.925Z,41.07
2023-07-24T02:07:17.370Z,41.22
2023-07-24T02:09:44.021Z,41.30
2023-07-24T02:12:10.517Z,41.04
2023-07-24T02:14:37.273Z,41.17
2023-07-24T02:17:03.902Z,41.27
2023-07-24T02:19:30.359Z,41.12
2023-07-24T02:21:56.923Z,40.91
2023-07-24T02:24:23.787Z,40.93
2023-07-24T02:26:50.513Z,41.13
2023-07-24T02:29:17.021Z,41.30
2023-07-24T02:31:44.330Z,41.01
2023-07-24T02:34:10.870Z,41.21
2023-07-24T02:36:37.655Z,41.12
2023-07-24T02:39:04.393Z,41.17
2023-07-24T02:41:30.940Z,41.14
2023-07-24T02:43:57.766Z,41.08
2023-07-24T02:46:25.884Z,41.13
2023-07-24T02:48:52.866Z,40.96
2023-07-24T02:51:19.323Z,41.26
2023-07-24T02:53:45.827Z,41.00
2023-07-24T02:56:12.290Z,41.15
2023-07-24T02:58:38.783Z,41.16
2023-07-24T03:01:07.585Z,41.13
2023-07-24T03:03:34.550Z,41.08
2023-07-24T03:06:01.255Z,41.09
2023-07-24T03:08:27.968Z,41.09
2023-07-24T03:10:54.460Z,41.34
2023-07-24T03:13:21.217Z,41.13
2023-07-24T03:15:55.042Z,41.14
2023-07-24T03:18:21.762Z,41.03
2023-07-24T03:20:48.257Z,41.24
2023-07-24T03:23:14.804Z,41.25
2023-07-24T03:25:41.422Z,41.12
2023-07-24T03:28:08.146Z,41.00
2023-07-24T03:30:34.743Z,41.12
2023-07-24T03:33:02.762Z,41.06
2023-07-24T03:35:29.365Z,41.20
2023-07-24T03:37:56.121Z,41.18
2023-07-24T03:40:22.583Z,41.25
2023-07-24T03:42:49.130Z,41.23
2023-07-24T03:45:15.955Z,41.11
2023-07-24T03:47:43.185Z,41.06
2023-07-24T03:50:10.014Z,41.18
2023-07-24T03:52:36.602Z,40.98
2023-07-24T03:55:03.375Z,41.16
2023-07-24T03:57:29.884Z,41.08
2023-07-24T03:59:56.343Z,41.14
2023-07-24T04:02:22.918Z,41.29
2023-07-24T04:04:49.668Z,41.38
2023-07-24T04:07:16.141Z,41.04
2023-07-24T04:09:42.663Z,41.04
2023-07-24T04:12:09.255Z,40.85
2023-07-24T04:14:35.857Z,41.02
2023-07-24T04:17:02.631Z,40.78
2023-07-24T04:19:29.367Z,40.93
2023-07-24T04:21:55.887Z,40.88
2023-07-24T04:24:22.342Z,41.01
2023-07-24T04:26:48.761Z,40.99
2023-07-24T04:29:15.210Z,40.74
2023-07-24T04:31:41.692Z,40.98
2023-07-24T04:34:08.434Z,40.88
2023-07-24T04:36:35.042Z,41.29
2023-07-24T04:39:01.522Z,41.63
2023-07-24T04:41:27.971Z,41.38
2023-07-24T04:43:54.468Z,41.52
2023-07-24T04:46:20.935Z,41.41
2023-07-24T04:48:47.717Z,41.72
2023-07-24T04:51:14.177Z,41.81
2023-07-24T04:53:40.966Z,41.95
2023-07-24T04:56:07.828Z,42.15
2023-07-24T04:58:34.317Z,41.91
2023-07-24T05:01:03.437Z,41.86
2023-07-24T05:03:29.878Z,42.39
2023-07-24T05:05:57.497Z,42.38
2023-07-24T05:08:24.052Z,42.30
2023-07-24T05:11:00.427Z,42.51
2023-07-24T05:13:27.451Z,42.61
2023-07-24T05:15:54.237Z,42.95
2023-07-24T05:18:21.026Z,43.08
2023-07-24T05:20:54.303Z,43.13
2023-07-24T05:23:20.734Z,43.21
2023-07-24T05:25:47.403Z,43.50
2023-07-24T05:28:13.797Z,43.05
2023-07-24T05:30:40.261Z,42.90
2023-07-24T05:33:06.860Z,43.15
2023-07-24T05:35:33.439Z,43.72
2023-07-24T05:38:00.033Z,43.40
2023-07-24T05:40:26.788Z,43.45
2023-07-24T05:42:55.573Z,43.38
2023-07-24T05:45:21.986Z,43.91
2023-07-24T05:47:48.476Z,43.51
2023-07-24T05:50:15.122Z,43.53
2023-07-24T05:52:42.086Z,43.46
2023-07-24T05:55:09.332Z,43.43
2023-07-24T05:57:36.125Z,43.40
2023-07-24T06:00:03.687Z,43.29
2023-07-24T06:02:30.206Z,43.36
2023-07-24T06:04:56.706Z,43.23
2023-07-24T06:07:23.251Z,43.22
2023-07-24T06:09:49.896Z,43.41
2023-07-24T06:12:19.099Z,43.27
2023-07-24T06:14:47.959Z,43.65
2023-07-24T06:17:17.747Z,43.42
2023-07-24T06:19:47.385Z,43.61
2023-07-24T06:22:17.185Z,43.49
2023-07-24T06:24:43.784Z,43.54
2023-07-24T06:27:10.253Z,43.67
2023-07-24T06:29:39.081Z,43.69
2023-07-24T06:32:06.843Z,43.71
2023-07-24T06:34:33.313Z,43.78
2023-07-24T06:37:09.360Z,43.77
2023-07-24T06:39:44.689Z,43.91
2023-07-24T06:42:11.199Z,44.01
2023-07-24T06:44:37.697Z,43.91
2023-07-24T06:47:04.294Z,43.95
2023-07-24T06:49:30.729Z,44.13
2023-07-24T06:51:57.112Z,43.88
2023-07-24T06:54:25.838Z,43.91
2023-07-24T06:56:56.030Z,43.78
2023-07-24T06:59:30.826Z,43.72
2023-07-24T07:01:59.544Z,43.77
2023-07-24T07:04:26.049Z,43.77
2023-07-24T07:06:52.521Z,43.76
2023-07-24T07:09:19.293Z,44.11
2023-07-24T07:11:48.729Z,44.24
2023-07-24T07:14:15.353Z,44.39
2023-07-24T07:16:47.400Z,44.18
2023-07-24T07:19:16.080Z,43.99
2023-07-24T07:21:42.880Z,44.20
2023-07-24T07:24:09.475Z,44.09
2023-07-24T07:26:36.018Z,43.97
2023-07-24T07:29:02.570Z,43.92
2023-07-24T07:31:29.200Z,44.00
2023-07-24T07:33:55.896Z,44.07
2023-07-24T07:36:23.950Z,43.94
2023-07-24T07:38:50.536Z,43.71
2023-07-24T07:41:19.938Z,43.88
2023-07-24T07:44:03.688Z,43.62
2023-07-24T07:46:30.658Z,43.57
2023-07-24T07:48:57.398Z,43.42
2023-07-24T07:51:26.736Z,43.66
2023-07-24T07:53:53.536Z,43.91
2023-07-24T07:56:20.028Z,43.83
2023-07-24T07:58:46.773Z,43.75
2023-07-24T08:01:13.342Z,43.98
2023-07-24T08:03:40.061Z,43.94
2023-07-24T08:06:07.259Z,43.97
2023-07-24T08:08:34.069Z,43.82
2023-07-24T08:11:04.729Z,43.99
2023-07-24T08:13:31.484Z,43.87
2023-07-24T08:15:58.128Z,43.94
2023-07-24T08:18:24.739Z,43.86
2023-07-24T08:20:51.180Z,43.83
2023-07-24T08:23:17.887Z,43.67
2023-07-24T08:25:53.930Z,43.70
2023-07-24T08:28:20.735Z,43.66
2023-07-24T08:30:48.461Z,43.63
2023-07-24T08:33:14.998Z,43.64
2023-07-24T08:35:41.429Z,43.70
2023-07-24T08:38:07.917Z,43.54
2023-07-24T08:40:34.589Z,43.60
2023-07-24T08:43:01.188Z,43.67
2023-07-24T08:45:27.993Z,43.50
2023-07-24T08:47:54.888Z,43.45
2023-07-24T08:50:21.652Z,43.54
2023-07-24T08:52:48.221Z,43.57
2023-07-24T08:55:14.744Z,43.36
2023-07-24T08:57:41.632Z,43.37
2023-07-24T09:00:08.323Z,43.53
2023-07-24T09:02:36.068Z,43.34
2023-07-24T09:05:03.002Z,43.39
2023-07-24T09:07:30.968Z,43.38
2023-07-24T09:09:57.513Z,43.14
2023-07-24T09:12:24.995Z,43.14
2023-07-24T09:15:01.648Z,43.26
2023-07-24T09:17:28.511Z,43.12
2023-07-24T09:19:59.180Z,43.10
2023-07-24T09:22:27.883Z,43.13
2023-07-24T09:24:55.495Z,43.05
2023-07-24T09:27:25.316Z,43.09
2023-07-24T09:29:51.818Z,43.07
2023-07-24T09:32:22.781Z,42.81
2023-07-24T09:34:51.997Z,42.84
2023-07-24T09:37:25.888Z,42.83
2023-07-24T09:39:54.124Z,42.62
2023-07-24T09:42:28.556Z,42.59
2023-07-24T09:44:55.278Z,42.60
2023-07-24T09:49:52.679Z,42.47
2023-07-24T09:52:19.715Z,42.40
2023-07-24T09:55:04.861Z,42.52
2023-07-24T09:57:32.001Z,42.31
2023-07-24T09:59:58.865Z,42.31
2023-07-24T10:02:26.213Z,42.26
2023-07-24T10:04:53.180Z,42.26
2023-07-24T10:07:23.017Z,42.15
2023-07-24T10:09:51.264Z,42.30
2023-07-24T10:12:19.160Z,42.10
2023-07-24T10:14:46.799Z,41.98
2023-07-24T10:17:13.698Z,42.03
2023-07-24T10:19:41.264Z,42.02
2023-07-24T10:22:08.091Z,42.01
2023-07-24T10:24:41.544Z,41.90
2023-07-24T10:27:09.068Z,41.91
2023-07-24T10:29:36.989Z,41.97
2023-07-24T10:32:03.845Z,41.96
2023-07-24T10:34:40.321Z,41.99
2023-07-24T10:37:09.138Z,41.85
2023-07-24T10:39:40.571Z,41.89
2023-07-24T10:42:08.163Z,41.95
2023-07-24T10:44:35.868Z,41.85
2023-07-24T10:47:02.744Z,41.99
2023-07-24T10:49:29.330Z,41.82
2023-07-24T10:51:56.802Z,41.92
2023-07-24T10:54:23.405Z,41.93
2023-07-24T10:56:51.949Z,41.71
2023-07-24T10:59:18.688Z,41.97
2023-07-24T11:01:45.152Z,41.91
2023-07-24T11:04:16.029Z,41.96
2023-07-24T11:06:42.645Z,42.00
2023-07-24T11:09:09.098Z,41.88
2023-07-24T11:11:38.447Z,41.85
2023-07-24T11:14:05.191Z,41.77
2023-07-24T11:16:33.344Z,41.97
2023-07-24T11:19:00.125Z,41.82
2023-07-24T11:21:26.966Z,41.68
2023-07-24T11:23:54.695Z,41.70
2023-07-24T11:26:22.258Z,41.64
2023-07-24T11:28:49.447Z,41.67
2023-07-24T11:31:16.429Z,41.69
2023-07-24T11:33:44.212Z,41.58
2023-07-24T11:36:10.857Z,41.59
2023-07-24T11:38:39.934Z,41.52
2023-07-24T11:41:06.726Z,41.41
2023-07-24T11:43:33.585Z,41.52
2023-07-24T11:46:00.095Z,41.34
2023-07-24T11:48:26.721Z,41.22
2023-07-24T11:50:56.770Z,41.37
2023-07-24T11:53:24.352Z,41.33
2023-07-24T11:55:51.788Z,41.33
2023-07-24T11:58:19.044Z,41.38
2023-07-24T12:00:46.867Z,41.14
2023-07-24T12:03:13.750Z,41.34
2023-07-24T12:05:41.293Z,41.25
2023-07-24T12:08:08.282Z,41.28
2023-07-24T12:10:36.961Z,41.13
2023-07-24T12:13:03.728Z,41.19
2023-07-24T12:15:30.249Z,41.14
2023-07-24T12:17:57.955Z,40.88
2023-07-24T12:20:24.729Z,40.95
2023-07-24T12:22:51.505Z,40.93
2023-07-24T12:25:18.373Z,40.91
2023-07-24T12:27:44.857Z,41.07
2023-07-24T12:30:11.736Z,40.76
2023-07-24T12:32:38.342Z,40.81
2023-07-24T12:35:05.184Z,40.90
2023-07-24T12:37:32.023Z,40.93
2023-07-24T12:39:58.589Z,40.90
2023-07-24T12:42:25.095Z,40.96
2023-07-24T12:44:51.580Z,41.46
2023-07-24T12:47:18.457Z,41.68
2023-07-24T12:49:44.946Z,42.01
2023-07-24T12:52:12.147Z,42.25
2023-07-24T12:54:59.090Z,42.31
2023-07-24T12:57:25.065Z,42.55
2023-07-24T12:59:51.540Z,42.73
2023-07-24T13:02:18.038Z,43.02
2023-07-24T13:04:44.797Z,43.16
2023-07-24T13:07:11.433Z,43.13
2023-07-24T13:09:38.273Z,42.91
2023-07-24T13:12:05.142Z,43.06
2023-07-24T13:14:31.595Z,43.18
2023-07-24T13:16:58.307Z,43.27
2023-07-24T13:19:24.865Z,43.20
2023-07-24T13:21:51.492Z,42.97
2023-07-24T13:24:18.118Z,42.83
2023-07-24T13:26:45.043Z,43.01
2023-07-24T13:29:11.671Z,42.93
2023-07-24T13:31:38.288Z,42.79
2023-07-24T13:34:04.778Z,42.77
2023-07-24T13:36:31.673Z,42.77
2023-07-24T13:38:58.274Z,42.92
2023-07-24T13:41:24.833Z,42.88
2023-07-24T13:43:51.472Z,42.84
2023-07-24T13:46:18.145Z,42.79
2023-07-24T13:48:44.642Z,42.93
2023-07-24T13:51:12.060Z,43.01
2023-07-24T13:53:38.947Z,42.77
2023-07-24T13:56:05.951Z,42.57
2023-07-24T13:58:32.407Z,42.88
2023-07-24T14:00:58.938Z,42.96
2023-07-24T14:03:30.205Z,43.00
2023-07-24T14:05:57.833Z,42.96
2023-07-24T14:08:24.477Z,42.90
2023-07-24T14:10:51.300Z,42.99
2023-07-24T14:13:18.099Z,43.01
2023-07-24T14:15:44.564Z,43.06
2023-07-24T14:18:11.091Z,43.12
2023-07-24T14:20:38.894Z,43.12
2023-07-24T14:23:05.441Z,43.08
2023-07-24T14:25:31.981Z,43.10
2023-07-24T14:27:58.468Z,43.23
2023-07-24T14:30:25.007Z,43.15
2023-07-24T14:32:51.873Z,43.29
2023-07-24T14:35:19.651Z,43.32
2023-07-24T14:37:46.106Z,43.42
2023-07-24T14:40:15.743Z,43.41
2023-07-24T14:42:42.341Z,43.49
2023-07-24T14:45:09.128Z,43.64
2023-07-24T14:47:35.987Z,43.53
2023-07-24T14:50:02.657Z,43.36
2023-07-24T14:52:29.202Z,43.61
2023-07-24T14:54:55.937Z,43.47
2023-07-24T14:57:25.985Z,43.63
2023-07-24T15:00:05.518Z,43.57
2023-07-24T15:02:33.803Z,43.52
2023-07-24T15:05:00.702Z,43.73
2023-07-24T15:08:16.992Z,43.68
2023-07-24T15:10:17.535Z,43.78
2023-07-24T15:16:44.652Z,43.59
2023-07-24T15:34:22.802Z,43.79
2023-07-24T15:36:49.270Z,43.85
2023-07-24T15:42:49.617Z,44.02
2023-07-24T15:45:16.074Z,44.30
2023-07-24T15:47:42.620Z,44.56
2023-07-24T15:50:09.305Z,44.59
2023-07-24T15:52:35.883Z,44.92
2023-07-24T15:55:02.462Z,44.78
2023-07-24T15:57:28.988Z,44.97
2023-07-24T16:00:28.959Z,44.64
2023-07-24T16:02:55.631Z,44.62
2023-07-24T16:05:22.798Z,44.68
2023-07-24T16:07:50.291Z,44.71
2023-07-24T16:10:19.774Z,44.37
2023-07-24T16:12:46.282Z,44.61
2023-07-24T16:18:10.280Z,44.27
2023-07-24T16:20:36.797Z,44.53
2023-07-24T16:23:03.535Z,44.46
2023-07-24T16:25:30.040Z,44.53
2023-07-24T16:27:56.598Z,44.36
2023-07-24T16:30:52.185Z,44.33
2023-07-24T16:35:49.007Z,44.58
2023-07-24T16:38:16.802Z,44.58
2023-07-24T16:40:43.320Z,44.72
2023-07-24T16:43:09.791Z,44.83
2023-07-24T16:45:37.134Z,44.79
2023-07-24T16:48:04.599Z,44.89
2023-07-24T16:50:31.257Z,44.73
2023-07-24T16:52:57.677Z,44.64
2023-07-24T16:55:24.212Z,44.73
2023-07-24T16:57:50.648Z,44.80
2023-07-24T17:00:17.458Z,44.80
2023-07-24T17:02:44.063Z,44.76
2023-07-24T17:05:10.883Z,44.73
2023-07-24T17:07:37.303Z,44.58
2023-07-24T17:10:04.100Z,44.58
2023-07-24T17:12:30.580Z,44.72
2023-07-24T17:14:57.295Z,44.83
2023-07-24T17:17:23.891Z,44.75
2023-07-24T17:19:50.723Z,44.56
2023-07-24T17:22:17.522Z,44.78
2023-07-24T17:24:44.150Z,44.63
2023-07-24T17:27:10.794Z,44.60
2023-07-24T17:29:37.295Z,44.60
2023-07-24T17:32:03.939Z,44.63
2023-07-24T17:34:30.375Z,44.51
2023-07-24T17:36:56.812Z,44.55
2023-07-24T17:39:23.318Z,44.43
2023-07-24T17:41:50.079Z,44.51
2023-07-24T17:44:16.626Z,44.52
2023-07-24T17:46:43.280Z,44.63
2023-07-24T17:49:09.826Z,44.43
2023-07-24T17:51:36.338Z,44.32
2023-07-24T17:54:03.036Z,44.42
2023-07-24T17:56:29.446Z,44.38
2023-07-24T17:58:55.921Z,44.44
2023-07-24T18:01:22.945Z,44.43
2023-07-24T18:03:49.612Z,44.43
2023-07-24T18:06:16.436Z,44.32
2023-07-24T18:08:43.177Z,44.58
2023-07-24T18:11:09.934Z,44.64
2023-07-24T18:13:36.408Z,44.54
2023-07-24T18:16:02.960Z,44.41
2023-07-24T18:18:29.405Z,44.74
2023-07-24T18:20:55.905Z,44.78
2023-07-24T18:23:22.406Z,44.87
2023-07-24T18:25:48.858Z,45.20
2023-07-24T18:28:17.239Z,45.22
2023-07-24T18:30:43.634Z,45.25
2023-07-24T18:33:11.323Z,45.58
2023-07-24T18:35:37.772Z,45.55
2023-07-24T18:38:04.271Z,45.77
2023-07-24T18:40:31.189Z,45.66
2023-07-24T18:43:28.821Z,45.21
2023-07-24T18:46:20.817Z,45.40
2023-07-24T18:48:51.035Z,45.38
2023-07-24T18:51:21.001Z,45.33
2023-07-24T18:53:48.954Z,45.66
2023-07-24T18:56:15.757Z,45.59
2023-07-24T18:58:44.905Z,45.87
2023-07-24T19:01:11.854Z,45.88
2023-07-24T19:03:38.682Z,46.00
2023-07-24T19:06:09.145Z,46.06
2023-07-24T19:08:35.922Z,46.25
2023-07-24T19:11:03.204Z,46.59
2023-07-24T19:13:32.665Z,46.51
2023-07-24T19:16:00.548Z,46.75
2023-07-24T19:18:27.128Z,46.92
2023-07-24T19:20:53.626Z,47.08
2023-07-24T19:23:20.151Z,47.39
2023-07-24T19:25:46.655Z,47.15
2023-07-24T19:28:13.059Z,47.16
2023-07-24T19:30:39.518Z,47.37
2023-07-24T19:33:06.119Z,47.09
2023-07-24T19:35:32.824Z,46.93
2023-07-24T19:37:59.311Z,46.66
2023-07-24T19:40:25.741Z,46.78
2023-07-24T19:42:52.588Z,46.70
2023-07-24T19:45:19.133Z,46.62
2023-07-24T19:47:45.775Z,46.83
2023-07-24T19:50:12.283Z,46.65
2023-07-24T19:52:38.855Z,46.56
2023-07-24T19:55:05.671Z,46.45
2023-07-24T19:57:32.730Z,46.60
2023-07-24T19:59:59.207Z,46.56
2023-07-24T20:02:26.088Z,46.59
2023-07-24T20:04:52.598Z,46.59
2023-07-24T20:07:21.360Z,46.50
2023-07-24T20:09:53.566Z,46.59
2023-07-24T20:12:26.303Z,46.55
2023-07-24T20:14:52.951Z,46.44
2023-07-24T20:17:19.532Z,46.68
2023-07-24T20:19:45.966Z,46.44
2023-07-24T20:22:12.372Z,46.34
2023-07-24T20:24:38.906Z,46.41
2023-07-24T20:27:05.776Z,46.51
2023-07-24T20:29:32.378Z,46.54
2023-07-24T20:31:58.815Z,46.57
2023-07-24T20:34:25.379Z,46.55
2023-07-24T20:36:51.824Z,46.58
2023-07-24T20:39:18.661Z,46.53
2023-07-24T20:41:45.584Z,46.53
2023-07-24T20:44:12.115Z,46.42
2023-07-24T20:46:38.884Z,46.29
2023-07-24T20:49:05.415Z,46.32
2023-07-24T20:51:32.556Z,46.07
2023-07-24T20:54:00.201Z,46.13
2023-07-24T20:56:26.852Z,46.21
2023-07-24T20:58:53.404Z,46.33
2023-07-24T21:01:22.806Z,46.07
2023-07-24T21:03:51.770Z,46.13
2023-07-24T21:06:18.507Z,46.17
2023-07-24T21:08:45.023Z,45.99
2023-07-24T21:11:11.513Z,45.91
2023-07-24T21:13:38.000Z,46.13
2023-07-24T21:16:04.639Z,46.09
2023-07-24T21:18:31.227Z,45.84
2023-07-24T21:20:59.964Z,45.77
2023-07-24T21:23:27.908Z,46.26
2023-07-24T21:25:55.355Z,46.10
2023-07-24T21:28:22.779Z,46.10
2023-07-24T21:30:49.477Z,45.97
2023-07-24T21:33:16.709Z,46.08
2023-07-24T21:35:43.316Z,45.86
2023-07-24T21:38:11.287Z,45.95
2023-07-24T21:40:37.705Z,46.01
2023-07-24T21:43:04.364Z,45.96
2023-07-24T21:45:30.859Z,45.98
2023-07-24T21:47:57.380Z,46.07
2023-07-24T21:50:23.880Z,45.95
2023-07-24T21:52:50.390Z,46.00
2023-07-24T21:55:17.123Z,46.00
2023-07-24T21:57:43.669Z,46.20
2023-07-24T22:00:10.460Z,46.02
2023-07-24T22:02:37.151Z,46.22
2023-07-24T22:05:03.803Z,46.42
2023-07-24T22:07:32.066Z,46.20
2023-07-24T22:09:58.660Z,46.19
2023-07-24T22:12:25.101Z,46.15
2023-07-24T22:14:51.631Z,46.24
2023-07-24T22:17:18.078Z,46.02
2023-07-24T22:19:44.482Z,46.08
2023-07-24T22:22:10.941Z,46.21
2023-07-24T22:24:37.918Z,46.11
2023-07-24T22:27:04.845Z,46.11
2023-07-24T22:29:31.301Z,46.06
2023-07-24T22:31:57.802Z,46.04
2023-07-24T22:34:24.272Z,46.18
2023-07-24T22:36:50.677Z,46.26
2023-07-24T22:39:17.422Z,46.26
2023-07-24T22:41:44.789Z,46.09
2023-07-24T22:44:11.331Z,45.96
2023-07-24T22:46:37.815Z,46.09
2023-07-24T22:49:04.407Z,46.11
2023-07-24T22:51:31.035Z,46.13
2023-07-24T22:53:57.943Z,46.10
2023-07-24T22:56:24.421Z,46.01
2023-07-24T22:59:02.834Z,46.12
2023-07-24T23:01:30.059Z,46.01
2023-07-24T23:03:57.631Z,45.96
2023-07-24T23:06:24.280Z,45.85
2023-07-24T23:08:50.798Z,45.75
2023-07-24T23:11:19.199Z,45.77
2023-07-24T23:13:45.643Z,45.85
2023-07-24T23:16:12.633Z,45.93
2023-07-24T23:18:39.461Z,45.72
2023-07-24T23:21:06.634Z,45.73
2023-07-24T23:23:33.035Z,45.87
2023-07-24T23:26:03.312Z,45.74
2023-07-24T23:28:30.133Z,45.81
2023-07-24T23:30:56.736Z,45.61
2023-07-24T23:33:23.353Z,45.44
2023-07-24T23:35:51.777Z,45.50
2023-07-24T23:38:18.229Z,45.62
2023-07-24T23:40:44.685Z,45.66
2023-07-24T23:43:11.120Z,45.51
2023-07-24T23:45:37.514Z,45.67
2023-07-24T23:48:04.070Z,45.63
2023-07-24T23:50:30.561Z,45.42
2023-07-24T23:52:59.543Z,45.57
2023-07-24T23:55:26.405Z,45.44
2023-07-24T23:57:52.824Z,45.32
